createdAt,value
2017-06-24T10:39:00.358Z,28.22
2017-06-24T10:40:16.018Z,28.16
2017-06-24T10:41:31.488Z,27.94
2017-06-24T10:42:47.071Z,27.48
2017-06-24T10:44:02.802Z,27.26
2017-06-24T10:45:16.933Z,27.1
2017-06-24T10:46:32.357Z,27.08
2017-06-24T10:47:46.484Z,27.39
2017-06-24T10:49:00.795Z,27.37
2017-06-24T10:50:15.874Z,27.33
2017-06-24T10:51:31.299Z,27.49
2017-06-24T10:52:47.105Z,27.8
2017-06-24T10:54:02.858Z,28.01
2017-06-24T10:55:18.320Z,28.29
2017-06-24T10:56:34.000Z,28.27
2017-06-24T10:57:49.417Z,28.27
2017-06-24T10:59:05.375Z,28
2017-06-24T11:00:20.829Z,27.6
2017-06-24T11:01:36.298Z,27.2
2017-06-24T11:02:51.786Z,26.8
2017-06-24T11:04:07.453Z,26.37
2017-06-24T11:05:22.892Z,26.02
2017-06-24T11:06:38.336Z,25.88
2017-06-24T11:07:53.739Z,25.61
2017-06-24T11:09:09.450Z,25.46
2017-06-24T11:10:24.891Z,25.59
2017-06-24T11:11:40.358Z,25.76
2017-06-24T11:12:55.790Z,26.02
2017-06-24T11:14:12.423Z,26.33
2017-06-24T11:15:28.543Z,26.61
2017-06-24T11:16:45.233Z,26.95
2017-06-24T11:18:02.137Z,27.11
2017-06-24T11:19:18.178Z,27.28
2017-06-24T11:20:33.584Z,27.46
2017-06-24T11:21:49.011Z,27.49
2017-06-24T11:23:04.690Z,27.49
2017-06-24T11:24:20.393Z,27.52
2017-06-24T11:25:35.828Z,27.58
2017-06-24T11:26:51.308Z,27.74
2017-06-24T11:28:06.773Z,27.63
2017-06-24T11:29:21.565Z,27.23
2017-06-24T11:30:37.690Z,26.92
2017-06-24T11:31:54.520Z,26.71
2017-06-24T11:33:10.215Z,26.61
2017-06-24T11:34:27.157Z,26.58
2017-06-24T11:35:44.390Z,26.52
2017-06-24T11:37:00.465Z,26.51
2017-06-24T11:38:15.925Z,26.43
2017-06-24T11:39:31.634Z,26.46
2017-06-24T11:40:47.127Z,26.61
2017-06-24T11:42:02.644Z,26.75
2017-06-24T11:43:18.067Z,26.99
2017-06-24T11:44:33.969Z,27.24
2017-06-24T11:45:49.396Z,27.46
2017-06-24T11:47:04.847Z,27.63
2017-06-24T11:48:19.962Z,27.79
2017-06-24T11:49:35.681Z,27.9
2017-06-24T11:50:51.200Z,27.86
2017-06-24T11:52:06.939Z,27.98
2017-06-24T11:53:22.423Z,27.89
2017-06-24T11:54:38.544Z,27.7
2017-06-24T11:55:53.998Z,27.53
2017-06-24T11:57:09.503Z,27.08
2017-06-24T11:58:24.606Z,26.96
2017-06-24T11:59:38.946Z,26.86
2017-06-24T12:00:54.465Z,26.92
2017-06-24T12:02:09.994Z,26.83
2017-06-24T12:03:25.623Z,26.85
2017-06-24T12:04:41.388Z,26.75
2017-06-24T12:07:26.300Z,26.64
2017-06-24T12:08:41.739Z,26.31
2017-06-24T12:09:57.451Z,26.19
2017-06-24T12:11:13.008Z,25.99
2017-06-24T12:12:28.480Z,25.81
2017-06-24T12:13:43.692Z,25.76
2017-06-24T12:14:59.427Z,25.64
2017-06-24T12:16:14.885Z,25.46
2017-06-24T12:17:30.355Z,25.42
2017-06-24T12:18:45.432Z,25.27
2017-06-24T12:20:01.145Z,25.19
2017-06-24T12:21:16.609Z,25.13
2017-06-24T12:22:32.083Z,24.94
2017-06-24T12:23:47.595Z,24.8
2017-06-24T12:25:03.468Z,24.69
2017-06-24T12:26:18.967Z,24.62
2017-06-24T12:27:34.356Z,24.57
2017-06-24T12:28:49.819Z,24.53
2017-06-24T12:30:05.510Z,24.44
2017-06-24T12:31:20.646Z,24.32
2017-06-24T12:32:36.098Z,24.19
2017-06-24T12:33:51.613Z,24.19
2017-06-24T12:35:07.328Z,24.17
2017-06-24T12:36:22.757Z,24.19
2017-06-24T12:37:37.864Z,24.34
2017-06-24T12:38:53.337Z,24.34
2017-06-24T12:40:09.188Z,24.34
2017-06-24T12:41:24.611Z,24.39
2017-06-24T12:42:38.812Z,24.43
2017-06-24T12:43:52.962Z,24.44
2017-06-24T12:45:08.281Z,24.47
2017-06-24T12:46:23.914Z,24.44
2017-06-24T12:47:39.442Z,24.43
2017-06-24T12:48:54.894Z,24.29
2017-06-24T12:50:10.632Z,24.25
2017-06-24T12:51:26.054Z,24.16
2017-06-24T12:52:41.501Z,24.06
2017-06-24T12:53:56.982Z,23.97
2017-06-24T12:55:12.687Z,23.9
2017-06-24T12:56:26.693Z,23.88
2017-06-24T12:57:40.802Z,23.77
2017-06-24T12:58:56.223Z,23.72
2017-06-24T13:00:12.100Z,23.77
2017-06-24T13:01:27.510Z,23.8
2017-06-24T13:02:42.900Z,23.94
2017-06-24T13:03:58.067Z,24.07
2017-06-24T13:05:12.541Z,24.05
2017-06-24T13:06:28.011Z,24.13
2017-06-24T13:07:43.480Z,24.17
2017-06-24T13:08:58.940Z,24.27
2017-06-24T13:10:14.645Z,24.34
2017-06-24T13:11:30.070Z,24.48
2017-06-24T13:12:59.288Z,24.47
2017-06-24T13:14:14.917Z,24.47
2017-06-24T13:15:30.603Z,24.5
2017-06-24T13:16:44.913Z,24.44
2017-06-24T13:18:00.394Z,24.43
2017-06-24T13:19:14.523Z,24.54
2017-06-24T13:20:30.194Z,24.54
2017-06-24T13:21:45.629Z,24.57
2017-06-24T13:23:01.072Z,24.58
2017-06-24T13:24:16.740Z,24.67
2017-06-24T13:25:32.583Z,24.78
2017-06-24T13:26:47.973Z,24.76
2017-06-24T13:28:03.422Z,24.76
2017-06-24T13:29:18.871Z,24.67
2017-06-24T13:30:33.312Z,24.62
2017-06-24T13:31:48.774Z,24.75
2017-06-24T13:33:02.870Z,24.73
2017-06-24T13:34:18.362Z,24.62
2017-06-24T13:35:34.074Z,24.6
2017-06-24T13:36:49.556Z,24.57
2017-06-24T13:38:04.976Z,24.44
2017-06-24T13:39:20.599Z,24.48
2017-06-24T13:40:36.292Z,24.35
2017-06-24T13:41:50.273Z,24.25
2017-06-24T13:43:05.719Z,24.09
2017-06-24T13:44:21.173Z,24.15
2017-06-24T13:45:36.897Z,24.1
2017-06-24T13:46:52.352Z,23.97
2017-06-24T13:48:07.933Z,23.92
2017-06-24T13:49:23.406Z,23.77
2017-06-24T13:50:37.973Z,23.77
2017-06-24T13:51:53.445Z,23.75
2017-06-24T13:53:08.923Z,23.72
2017-06-24T13:54:23.179Z,23.72
2017-06-24T13:55:52.496Z,23.58
2017-06-24T13:57:07.917Z,23.48
2017-06-24T13:58:23.636Z,23.55
2017-06-24T13:59:39.104Z,23.6
2017-06-24T14:00:54.832Z,23.76
2017-06-24T14:02:10.214Z,23.79
2017-06-24T14:03:24.349Z,23.77
2017-06-24T14:04:40.048Z,23.69
2017-06-24T14:05:55.980Z,23.76
2017-06-24T14:07:11.408Z,23.75
2017-06-24T14:08:26.863Z,23.73
2017-06-24T14:09:42.358Z,23.75
2017-06-24T14:11:28.750Z,23.6
2017-06-24T14:12:44.204Z,23.72
2017-06-24T14:13:59.696Z,23.48
2017-06-24T14:15:15.401Z,23.55
2017-06-24T14:16:31.118Z,23.54
2017-06-24T14:17:46.560Z,23.54
2017-06-24T14:19:01.670Z,23.48
2017-06-24T14:20:17.303Z,23.46
2017-06-24T14:21:33.039Z,23.54
2017-06-24T14:22:47.164Z,23.38
2017-06-24T14:24:01.442Z,23.31
2017-06-24T14:25:16.926Z,23.33
2017-06-24T14:26:32.850Z,23.24
2017-06-24T14:27:48.291Z,23.2
2017-06-24T14:29:03.890Z,23.18
2017-06-24T14:30:19.484Z,23.2
2017-06-24T14:31:34.782Z,23.2
2017-06-24T14:32:50.338Z,23.2
2017-06-24T14:34:05.739Z,23.16
2017-06-24T14:35:21.203Z,23.17
2017-06-24T14:36:36.963Z,23.2
2017-06-24T14:37:52.433Z,23.2
2017-06-24T14:39:06.491Z,23.23
2017-06-24T14:40:21.971Z,23.31
2017-06-24T14:41:37.689Z,23.32
2017-06-24T14:42:53.172Z,23.33
2017-06-24T14:44:07.259Z,23.35
2017-06-24T14:45:22.738Z,23.27
2017-06-24T14:46:38.473Z,23.27
2017-06-24T14:47:53.974Z,23.17
2017-06-24T14:49:08.135Z,23.2
2017-06-24T14:50:23.566Z,23.16
2017-06-24T14:51:39.310Z,23.08
2017-06-24T14:52:54.904Z,23.03
2017-06-24T14:54:10.322Z,23.02
2017-06-24T14:55:24.353Z,23.06
2017-06-24T14:56:40.027Z,23.06
2017-06-24T14:57:55.831Z,23.01
2017-06-24T14:59:11.675Z,22.99
2017-06-24T15:00:27.111Z,23.02
2017-06-24T15:01:41.461Z,22.93
2017-06-24T15:02:57.074Z,22.9
2017-06-24T15:04:26.075Z,22.82
2017-06-24T15:05:41.546Z,22.75
2017-06-24T15:06:57.225Z,22.67
2017-06-24T15:08:12.286Z,22.64
2017-06-24T15:09:27.744Z,22.67
2017-06-24T15:10:41.947Z,22.55
2017-06-24T15:11:57.691Z,22.58
2017-06-24T15:13:13.533Z,22.6
2017-06-24T15:14:28.954Z,22.43
2017-06-24T15:15:44.359Z,22.46
2017-06-24T15:17:00.226Z,22.46
2017-06-24T15:18:14.212Z,22.31
2017-06-24T15:19:29.684Z,22.3
2017-06-24T15:20:43.877Z,22.42
2017-06-24T15:21:59.570Z,22.33
2017-06-24T15:23:14.407Z,22.26
2017-06-24T15:24:31.410Z,22.28
2017-06-24T15:25:48.486Z,22.3
2017-06-24T15:27:05.504Z,22.3
2017-06-24T15:28:22.685Z,22.31
2017-06-24T15:29:39.865Z,22.4
2017-06-24T15:30:56.132Z,22.31
2017-06-24T15:32:12.842Z,22.45
2017-06-24T15:33:29.586Z,22.46
2017-06-24T15:34:45.922Z,22.43
2017-06-24T15:36:02.457Z,22.4
2017-06-24T15:37:19.039Z,22.5
2017-06-24T15:38:35.950Z,22.5
2017-06-24T15:39:53.042Z,22.58
2017-06-24T15:41:08.321Z,22.55
2017-06-24T15:42:25.548Z,22.52
2017-06-24T15:43:42.088Z,22.58
2017-06-24T15:44:58.861Z,22.5
2017-06-24T15:46:15.875Z,22.52
2017-06-24T15:47:32.667Z,22.57
2017-06-24T15:48:48.994Z,22.52
2017-06-24T15:50:05.256Z,22.6
2017-06-24T15:51:21.676Z,22.61
2017-06-24T15:52:38.243Z,22.48
2017-06-24T15:53:54.615Z,22.57
2017-06-24T15:55:24.139Z,22.42
2017-06-24T15:56:39.302Z,22.4
2017-06-24T15:57:56.122Z,22.33
2017-06-24T15:59:12.443Z,22.33
2017-06-24T16:00:28.379Z,22.38
2017-06-24T16:01:43.236Z,22.34
2017-06-24T16:02:59.240Z,22.3
2017-06-24T16:04:15.422Z,22.27
2017-06-24T16:05:33.101Z,22.38
2017-06-24T16:06:49.536Z,22.21
2017-06-24T16:08:06.122Z,22.18
2017-06-24T16:09:22.512Z,22.08
2017-06-24T16:10:38.947Z,21.98
2017-06-24T16:11:55.269Z,21.94
2017-06-24T16:13:12.124Z,21.88
2017-06-24T16:14:27.741Z,21.96
2017-06-24T16:15:43.437Z,21.94
2017-06-24T16:16:58.827Z,21.93
2017-06-24T16:18:13.255Z,21.93
2017-06-24T16:19:28.680Z,21.97
2017-06-24T16:20:44.284Z,21.91
2017-06-24T16:21:58.745Z,21.96
2017-06-24T16:23:14.434Z,21.93
2017-06-24T16:24:28.572Z,21.93
2017-06-24T16:25:44.037Z,21.96
2017-06-24T16:26:59.912Z,21.97
2017-06-24T16:28:17.472Z,22.03
2017-06-24T16:29:33.515Z,22.02
2017-06-24T16:30:49.926Z,22.09
2017-06-24T16:32:05.929Z,22.05
2017-06-24T16:33:21.393Z,22.18
2017-06-24T16:34:36.804Z,22.11
2017-06-24T16:35:50.955Z,22.21
2017-06-24T16:37:06.537Z,22.23
2017-06-24T16:38:22.275Z,22.21
2017-06-24T16:39:37.693Z,22.2
2017-06-24T16:40:53.170Z,22.13
2017-06-24T16:42:08.593Z,22.16
2017-06-24T16:43:24.349Z,22.13
2017-06-24T16:44:39.690Z,22.03
2017-06-24T16:45:55.219Z,22.11
2017-06-24T16:47:41.511Z,22.03
2017-06-24T16:48:57.215Z,22.03
2017-06-24T16:50:12.620Z,21.84
2017-06-24T16:51:25.691Z,21.87
2017-06-24T16:52:41.347Z,21.87
2017-06-24T16:53:57.049Z,21.84
2017-06-24T16:55:12.438Z,21.78
2017-06-24T16:56:27.918Z,21.84
2017-06-24T16:57:43.363Z,21.78
2017-06-24T16:58:58.684Z,21.71
2017-06-24T17:00:14.347Z,21.61
2017-06-24T17:01:29.840Z,21.6
2017-06-24T17:02:45.247Z,21.58
2017-06-24T17:04:01.223Z,21.64
2017-06-24T17:05:16.697Z,21.5
2017-06-24T17:06:31.813Z,21.48
2017-06-24T17:07:45.786Z,21.43
2017-06-24T17:09:01.707Z,21.35
2017-06-24T17:10:17.133Z,21.33
2017-06-24T17:11:31.310Z,21.31
2017-06-24T17:12:46.842Z,21.37
2017-06-24T17:14:16.204Z,21.37
2017-06-24T17:15:31.798Z,21.23
2017-06-24T17:16:47.468Z,21.19
2017-06-24T17:18:02.919Z,21.22
2017-06-24T17:19:18.290Z,21.25
2017-06-24T17:20:33.754Z,21.22
2017-06-24T17:21:49.174Z,21.22
2017-06-24T17:23:04.717Z,21.13
2017-06-24T17:24:20.404Z,21.09
2017-06-24T17:25:35.845Z,21.06
2017-06-24T17:26:51.395Z,20.97
2017-06-24T17:28:06.820Z,20.98
2017-06-24T17:29:22.133Z,20.96
2017-06-24T17:30:37.526Z,20.98
2017-06-24T17:31:53.047Z,20.86
2017-06-24T17:33:08.464Z,20.85
2017-06-24T17:34:24.198Z,20.81
2017-06-24T17:35:39.673Z,20.91
2017-06-24T17:36:55.295Z,20.85
2017-06-24T17:38:10.877Z,20.81
2017-06-24T17:39:26.561Z,20.78
2017-06-24T17:40:41.674Z,20.82
2017-06-24T17:41:57.093Z,20.78
2017-06-24T17:43:12.495Z,20.78
2017-06-24T17:44:26.736Z,20.75
2017-06-24T17:45:42.178Z,20.76
2017-06-24T17:46:57.618Z,20.75
2017-06-24T17:48:13.056Z,20.72
2017-06-24T17:49:28.814Z,20.67
2017-06-24T17:50:44.456Z,20.67
2017-06-24T17:52:00.099Z,20.66
2017-06-24T17:53:14.226Z,20.45
2017-06-24T17:54:28.240Z,20.56
2017-06-24T17:55:43.945Z,20.48
2017-06-24T17:56:59.474Z,20.46
2017-06-24T17:58:18.969Z,20.49
2017-06-24T17:59:42.513Z,20.43
2017-06-24T18:01:04.877Z,20.41
2017-06-24T18:02:26.348Z,20.46
2017-06-24T18:03:48.336Z,20.41
2017-06-24T18:05:11.584Z,20.34
2017-06-24T18:06:33.458Z,20.38
2017-06-24T18:07:55.305Z,20.34
2017-06-24T18:09:17.259Z,20.38
2017-06-24T18:10:41.106Z,20.35
2017-06-24T18:12:02.882Z,20.43
2017-06-24T18:13:18.311Z,20.43
2017-06-24T18:14:33.740Z,20.31
2017-06-24T18:15:49.646Z,20.3
2017-06-24T18:17:05.070Z,20.28
2017-06-24T18:18:20.519Z,20.31
2017-06-24T18:19:36.133Z,20.28
2017-06-24T18:20:51.792Z,20.3
2017-06-24T18:22:07.277Z,20.34
2017-06-24T18:23:22.732Z,20.31
2017-06-24T18:24:38.225Z,20.26
2017-06-24T18:25:53.964Z,20.31
2017-06-24T18:27:09.423Z,20.24
2017-06-24T18:28:24.821Z,20.24
2017-06-24T18:29:40.260Z,20.2
2017-06-24T18:30:56.138Z,20.08
2017-06-24T18:32:11.548Z,20.14
2017-06-24T18:33:25.650Z,20.11
2017-06-24T18:34:41.386Z,20.12
2017-06-24T18:35:57.146Z,20.14
2017-06-24T18:37:12.818Z,20.08
2017-06-24T18:38:28.275Z,19.93
2017-06-24T18:39:43.755Z,20.07
2017-06-24T18:40:59.469Z,20.01
2017-06-24T18:42:14.920Z,19.95
2017-06-24T18:43:30.555Z,19.95
2017-06-24T18:44:46.112Z,19.9
2017-06-24T18:46:01.531Z,19.95
2017-06-24T18:47:16.981Z,19.89
2017-06-24T18:48:32.748Z,19.9
2017-06-24T18:49:48.413Z,19.86
2017-06-24T18:51:03.796Z,19.79
2017-06-24T18:52:19.256Z,19.83
2017-06-24T18:53:34.682Z,19.79
2017-06-24T18:54:50.392Z,19.76
2017-06-24T18:56:04.407Z,19.83
2017-06-24T18:57:20.126Z,19.78
2017-06-24T18:58:35.612Z,19.71
2017-06-24T18:59:50.899Z,19.76
2017-06-24T19:01:06.337Z,19.74
2017-06-24T19:02:20.622Z,19.73
2017-06-24T19:03:36.161Z,19.68
2017-06-24T19:04:51.859Z,19.64
2017-06-24T19:06:07.523Z,19.65
2017-06-24T19:07:22.987Z,19.7
2017-06-24T19:08:38.432Z,19.64
2017-06-24T19:09:54.088Z,19.68
2017-06-24T19:11:09.546Z,19.45
2017-06-24T19:12:24.968Z,19.55
2017-06-24T19:13:53.973Z,19.58
2017-06-24T19:15:09.630Z,19.53
2017-06-24T19:16:25.270Z,19.52
2017-06-24T19:17:40.719Z,19.56
2017-06-24T19:18:56.167Z,19.58
2017-06-24T19:20:11.862Z,19.49
2017-06-24T19:21:27.356Z,19.42
2017-06-24T19:22:42.852Z,19.43
2017-06-24T19:23:57.297Z,19.45
2017-06-24T19:25:13.187Z,19.35
2017-06-24T19:26:28.658Z,19.37
2017-06-24T19:27:44.098Z,19.35
2017-06-24T19:28:59.801Z,19.35
2017-06-24T19:30:14.224Z,19.34
2017-06-24T19:31:29.693Z,19.35
2017-06-24T19:32:45.119Z,19.35
2017-06-24T19:34:00.553Z,19.25
2017-06-24T19:35:16.256Z,19.28
2017-06-24T19:36:31.663Z,19.25
2017-06-24T19:37:47.553Z,19.28
2017-06-24T19:39:03.631Z,19.24
2017-06-24T19:40:20.893Z,19.23
2017-06-24T19:41:36.942Z,19.15
2017-06-24T19:42:53.774Z,19.15
2017-06-24T19:44:09.999Z,19.13
2017-06-24T19:45:27.250Z,19.06
2017-06-24T19:46:43.784Z,19.1
2017-06-24T19:47:58.889Z,19.03
2017-06-24T19:49:15.159Z,18.94
2017-06-24T19:50:32.667Z,18.98
2017-06-24T19:51:49.156Z,18.91
2017-06-24T19:54:34.679Z,18.9
2017-06-24T19:55:50.892Z,18.87
2017-06-24T19:57:07.804Z,18.87
2017-06-24T19:58:24.472Z,18.86
2017-06-24T19:59:40.977Z,18.84
2017-06-24T20:00:58.019Z,18.84
2017-06-24T20:02:14.236Z,18.69
2017-06-24T20:03:30.082Z,18.59
2017-06-24T20:04:46.002Z,18.59
2017-06-24T20:06:02.731Z,18.59
2017-06-24T20:07:18.985Z,18.55
2017-06-24T20:08:35.184Z,18.56
2017-06-24T20:09:51.848Z,18.38
2017-06-24T20:11:08.805Z,18.37
2017-06-24T20:12:24.818Z,18.41
2017-06-24T20:13:41.429Z,18.31
2017-06-24T20:14:57.729Z,18.31
2017-06-24T20:16:14.112Z,18.22
2017-06-24T20:17:30.308Z,18.15
2017-06-24T20:18:46.292Z,18.12
2017-06-24T20:20:02.923Z,18.09
2017-06-24T20:21:19.660Z,17.94
2017-06-24T20:22:35.563Z,18.02
2017-06-24T20:23:51.616Z,17.97
2017-06-24T20:25:07.423Z,18.01
2017-06-24T20:26:23.773Z,17.92
2017-06-24T20:27:40.007Z,17.92
2017-06-24T20:28:55.770Z,17.87
2017-06-24T20:30:11.277Z,17.85
2017-06-24T20:31:26.969Z,17.79
2017-06-24T20:32:40.960Z,17.86
2017-06-24T20:33:55.120Z,17.92
2017-06-24T20:35:10.666Z,17.95
2017-06-24T20:36:26.425Z,17.87
2017-06-24T20:37:41.880Z,17.94
2017-06-24T20:38:57.325Z,17.89
2017-06-24T20:40:12.901Z,17.89
2017-06-24T20:41:28.641Z,17.89
2017-06-24T20:42:44.263Z,17.87
2017-06-24T20:43:59.686Z,17.94
2017-06-24T20:45:15.233Z,17.94
2017-06-24T20:46:30.934Z,17.98
2017-06-24T20:47:46.514Z,17.97
2017-06-24T20:49:02.218Z,17.89
2017-06-24T20:50:17.612Z,17.97
2017-06-24T20:51:33.567Z,17.83
2017-06-24T20:52:49.031Z,18.04
2017-06-24T20:54:04.455Z,17.95
2017-06-24T20:55:20.091Z,18.02
2017-06-24T20:56:35.992Z,17.94
2017-06-24T20:57:49.705Z,18.07
2017-06-24T20:59:05.185Z,18
2017-06-24T21:00:20.665Z,18
2017-06-24T21:01:36.349Z,18
2017-06-24T21:02:51.774Z,18.01
2017-06-24T21:04:07.155Z,18
2017-06-24T21:05:22.706Z,18.02
2017-06-24T21:06:38.345Z,17.86
2017-06-24T21:07:53.916Z,17.97
2017-06-24T21:09:09.329Z,17.87
2017-06-24T21:10:24.767Z,17.91
2017-06-24T21:11:40.512Z,17.89
2017-06-24T21:12:55.957Z,17.95
2017-06-24T21:14:11.393Z,17.89
2017-06-24T21:15:27.014Z,17.86
2017-06-24T21:16:42.936Z,17.82
2017-06-24T21:17:58.380Z,17.77
2017-06-24T21:19:13.832Z,17.87
2017-06-24T21:21:00.258Z,17.86
2017-06-24T21:22:15.927Z,17.76
2017-06-24T21:23:31.385Z,17.67
2017-06-24T21:25:00.385Z,17.77
2017-06-24T21:26:14.485Z,17.79
2017-06-24T21:27:30.168Z,17.87
2017-06-24T21:28:45.663Z,17.76
2017-06-24T21:30:01.290Z,17.92
2017-06-24T21:31:16.327Z,17.86
2017-06-24T21:32:32.382Z,17.89
2017-06-24T21:33:47.797Z,17.87
2017-06-24T21:35:03.237Z,17.95
2017-06-24T21:36:18.851Z,17.98
2017-06-24T21:37:34.742Z,17.8
2017-06-24T21:38:50.141Z,18.05
2017-06-24T21:40:05.835Z,18.01
2017-06-24T21:41:21.335Z,18
2017-06-24T21:42:37.231Z,17.97
2017-06-24T21:43:52.693Z,17.86
2017-06-24T21:45:06.673Z,18.01
2017-06-24T21:46:22.374Z,17.94
2017-06-24T21:47:38.056Z,18.04
2017-06-24T21:48:53.515Z,18.02
2017-06-24T21:50:08.914Z,18.04
2017-06-24T21:51:24.587Z,17.94
2017-06-24T21:52:40.342Z,18
2017-06-24T21:53:55.772Z,17.98
2017-06-24T21:55:11.182Z,17.98
2017-06-24T21:56:26.628Z,17.95
2017-06-24T21:57:41.017Z,17.82
2017-06-24T21:58:56.454Z,17.89
2017-06-24T22:00:11.896Z,17.98
2017-06-24T22:01:27.333Z,18
2017-06-24T22:02:43.023Z,18
2017-06-24T22:03:58.636Z,17.95
2017-06-24T22:05:14.123Z,17.97
2017-06-24T22:06:29.577Z,17.95
2017-06-24T22:07:45.415Z,17.95
2017-06-24T22:09:01.032Z,17.86
2017-06-24T22:10:15.005Z,17.75
2017-06-24T22:11:30.441Z,17.76
2017-06-24T22:12:46.129Z,17.73
2017-06-24T22:14:01.597Z,17.73
2017-06-24T22:15:17.015Z,17.7
2017-06-24T22:16:32.624Z,17.89
2017-06-24T22:17:47.023Z,17.83
2017-06-24T22:19:02.618Z,17.83
2017-06-24T22:20:18.035Z,17.89
2017-06-24T22:21:33.713Z,17.83
2017-06-24T22:22:49.396Z,17.91
2017-06-24T22:24:04.800Z,17.82
2017-06-24T22:25:20.243Z,17.68
2017-06-24T22:26:35.706Z,17.72
2017-06-24T22:27:51.376Z,17.73
2017-06-24T22:29:06.759Z,17.73
2017-06-24T22:30:22.166Z,17.87
2017-06-24T22:31:37.725Z,17.86
2017-06-24T22:32:53.373Z,17.83
2017-06-24T22:34:07.509Z,17.82
2017-06-24T22:35:23.047Z,17.76
2017-06-24T22:36:38.525Z,17.67
2017-06-24T22:37:54.136Z,17.68
2017-06-24T22:39:09.577Z,17.72
2017-06-24T22:40:25.004Z,17.73
2017-06-24T22:41:40.487Z,17.73
2017-06-24T22:42:56.298Z,17.75
2017-06-24T22:44:11.712Z,17.68
2017-06-24T22:45:27.161Z,17.72
2017-06-24T22:46:41.542Z,17.72
2017-06-24T22:47:57.280Z,17.72
2017-06-24T22:49:12.743Z,17.75
2017-06-24T22:50:28.194Z,17.6
2017-06-24T22:51:42.388Z,17.64
2017-06-24T22:52:58.271Z,17.65
2017-06-24T22:54:13.690Z,17.58
2017-06-24T22:55:29.143Z,17.67
2017-06-24T22:56:44.548Z,17.68
2017-06-24T22:58:00.259Z,17.72
2017-06-24T22:59:15.726Z,17.61
2017-06-24T23:00:31.132Z,17.64
2017-06-24T23:01:46.608Z,17.58
2017-06-24T23:03:02.303Z,17.54
2017-06-24T23:04:17.751Z,17.49
2017-06-24T23:05:33.246Z,17.55
2017-06-24T23:06:47.370Z,17.52
2017-06-24T23:08:03.029Z,17.54
2017-06-24T23:09:18.308Z,17.43
2017-06-24T23:10:33.755Z,17.39
2017-06-24T23:11:49.124Z,17.45
2017-06-24T23:13:03.507Z,17.45
2017-06-24T23:14:17.629Z,17.38
2017-06-24T23:15:33.079Z,17.27
2017-06-24T23:16:47.124Z,17.31
2017-06-24T23:18:02.800Z,17.32
2017-06-24T23:19:16.886Z,17.27
2017-06-24T23:20:29.784Z,17.24
2017-06-24T23:21:43.503Z,17.23
2017-06-24T23:22:57.639Z,17.16
2017-06-24T23:24:13.323Z,17.23
2017-06-24T23:25:27.089Z,17.2
2017-06-24T23:26:42.573Z,17.16
2017-06-24T23:27:57.934Z,17.11
2017-06-24T23:29:13.613Z,17.17
2017-06-24T23:30:28.971Z,17.11
2017-06-24T23:31:44.422Z,17.16
2017-06-24T23:32:57.204Z,17.21
2017-06-24T23:34:12.994Z,17.23
2017-06-24T23:35:28.649Z,17.24
2017-06-24T23:36:44.068Z,17.23
2017-06-24T23:37:59.468Z,17.28
2017-06-24T23:39:15.143Z,17.38
2017-06-24T23:40:30.551Z,17.31
2017-06-24T23:41:45.954Z,17.36
2017-06-24T23:43:01.568Z,17.39
2017-06-24T23:44:16.230Z,17.42
2017-06-24T23:45:31.868Z,17.38
2017-06-24T23:46:45.983Z,17.3
2017-06-24T23:48:01.351Z,17.32
2017-06-24T23:49:16.819Z,17.4
2017-06-24T23:50:32.450Z,17.38
2017-06-24T23:51:47.917Z,17.35
2017-06-24T23:53:02.986Z,17.28
2017-06-24T23:54:18.391Z,17.21
2017-06-24T23:55:33.935Z,17.21
2017-06-24T23:56:49.356Z,17.09
2017-06-24T23:58:04.778Z,17.09
2017-06-24T23:59:20.388Z,17.09
